Terminal Aerodrome Forecast
Issued by NWS Spokane, WA

Home | Current Version | Previous Version | Text Only | Print | Product List | Glossary On
Versions: 1 2 3 4 5 6 7 8 9 10 11 12 13 14 15 16 17
000
FTUS46 KOTX 171721
TAFGEG
TAF
KGEG 171721Z 1718/1818 20012KT P6SM -RA OVC015
     FM172300 20011KT 5SM RA BKN009 OVC015
     FM180300 21016KT P6SM -SHRA SCT012 OVC025
     FM181000 21021G30KT P6SM VCSH SCT012 BKN035=

USA.gov is the U.S. government's official web portal to all federal, state and local government web resources and services.